Time;durP1;ratioP1;P1;durP2;ratioP2;P2;SDS_P1;SDS_P2;PMS_P1;PMS_P2;Temp;Humidity;BMP_temperature;BMP_pressure;BME280_temperature;BME280_humidity;BME280_pressure;Samples;Min_cycle;Max_cycle;Signal;HPM_P1;HPM_P2
2022/08/24 00:00:44;;;;;;;7.87;7.07;;;;;;;16.04;94.16;97884.66;6203772;28;20356;-46
2022/08/24 00:03:47;;;;;;;9.10;8.20;;;;;;;16.06;94.11;97882.69;6204746;28;20323;-44
2022/08/24 00:06:55;;;;;;;7.70;7.00;;;;;;;16.06;94.08;97897.81;6205134;28;20233;-43
2022/08/24 00:09:58;;;;;;;8.83;7.90;;;;;;;16.04;94.23;97894.47;6204700;28;20628;-43
2022/08/24 00:13:01;;;;;;;5.40;4.90;;;;;;;16.03;94.08;97893.63;6205370;28;20240;-43
2022/08/24 00:16:05;;;;;;;10.33;9.23;;;;;;;16.02;94.17;97896.44;6204444;28;20306;-44
2022/08/24 00:19:07;;;;;;;7.10;5.70;;;;;;;16.07;94.26;97904.81;6205936;28;20243;-43
2022/08/24 00:22:09;;;;;;;6.00;5.40;;;;;;;16.09;93.96;97900.16;6166493;28;20614;-43
2022/08/24 00:25:13;;;;;;;9.43;8.50;;;;;;;16.08;94.16;97883.34;6204827;28;20315;-43
2022/08/24 00:28:15;;;;;;;5.90;5.30;;;;;;;16.11;93.74;97885.69;6204172;28;20331;-44
2022/08/24 00:31:18;;;;;;;6.97;5.10;;;;;;;16.14;93.61;97898.72;6188591;28;20700;-44
2022/08/24 00:34:20;;;;;;;7.57;6.30;;;;;;;16.15;93.45;97896.91;6194133;28;20232;-46
2022/08/24 00:37:23;;;;;;;6.07;5.23;;;;;;;16.15;93.41;97897.72;6202358;28;20330;-44
2022/08/24 00:40:33;;;;;;;6.60;5.90;;;;;;;16.16;93.52;97896.75;6204263;28;20232;-44
2022/08/24 00:43:35;;;;;;;5.77;4.87;;;;;;;16.16;93.57;97904.72;6203525;28;20321;-45
2022/08/24 00:46:44;;;;;;;5.67;5.03;;;;;;;16.20;93.10;97911.41;6201280;28;20560;-44
2022/08/24 00:49:58;;;;;;;5.70;5.10;;;;;;;16.22;92.86;97919.25;6204605;28;20777;-47
2022/08/24 00:53:03;;;;;;;10.20;7.87;;;;;;;16.23;93.07;97929.75;6201897;28;20605;-45
2022/08/24 00:56:20;;;;;;;19.93;13.80;;;;;;;16.21;92.95;97922.91;6202773;28;20232;-43
2022/08/24 00:59:28;;;;;;;7.40;6.00;;;;;;;16.19;93.26;97925.72;6205116;28;20243;-44
2022/08/24 01:03:05;;;;;;;10.17;7.50;;;;;;;16.20;93.22;97929.22;5919034;28;22236;-42
2022/08/24 01:06:09;;;;;;;9.87;8.33;;;;;;;16.27;92.88;97934.78;6155069;28;20241;-44
2022/08/24 01:09:12;;;;;;;9.07;6.87;;;;;;;16.32;92.68;97928.00;6146841;28;20219;-45
2022/08/24 01:12:18;;;;;;;10.27;7.10;;;;;;;16.33;92.52;97932.34;6154943;28;20407;-44
2022/08/24 01:15:21;;;;;;;6.30;5.43;;;;;;;16.37;92.56;97936.34;6160332;28;20236;-43
2022/08/24 01:22:01;;;;;;;18.47;12.47;;;;;;;16.44;92.18;97932.09;6151275;28;20261;-44
2022/08/24 01:25:05;;;;;;;6.60;5.83;;;;;;;16.46;92.07;97922.16;6158596;28;20261;-48
2022/08/24 01:28:16;;;;;;;4.70;4.17;;;;;;;16.49;92.03;97921.81;6158862;28;20234;-44
2022/08/24 01:31:28;;;;;;;6.37;5.47;;;;;;;16.51;91.33;97930.50;6158838;28;20239;-46
2022/08/24 01:34:30;;;;;;;5.23;3.97;;;;;;;16.57;91.11;97926.34;6158101;28;20225;-45
2022/08/24 01:37:34;;;;;;;4.93;3.80;;;;;;;16.59;91.09;97927.06;6158668;28;20244;-44
2022/08/24 01:40:44;;;;;;;14.30;10.10;;;;;;;16.60;90.99;97926.06;6158803;28;20332;-43
2022/08/24 01:43:46;;;;;;;4.50;4.10;;;;;;;16.59;90.91;97917.22;6159420;28;20230;-44
2022/08/24 01:46:54;;;;;;;3.80;3.50;;;;;;;16.60;90.86;97926.91;6158878;28;20229;-43
2022/08/24 01:49:56;;;;;;;9.60;6.17;;;;;;;16.59;91.03;97922.56;6159121;28;20310;-43
2022/08/24 01:53:02;;;;;;;22.93;17.37;;;;;;;16.59;90.98;97924.38;6159386;28;20238;-43
2022/08/24 01:56:06;;;;;;;7.53;5.97;;;;;;;16.58;90.90;97926.22;6165438;28;20265;-44
2022/08/24 01:59:11;;;;;;;9.13;7.43;;;;;;;16.59;90.84;97925.22;6164735;28;20234;-47
2022/08/24 02:02:28;;;;;;;7.07;6.37;;;;;;;16.62;90.48;97929.44;6140037;28;20233;-47
2022/08/24 02:05:32;;;;;;;4.67;4.17;;;;;;;16.64;90.38;97926.63;6188492;28;20232;-45
2022/08/24 02:08:35;;;;;;;3.70;3.40;;;;;;;16.66;90.28;97924.66;6209041;28;20310;-45
2022/08/24 02:11:39;;;;;;;4.30;3.90;;;;;;;16.65;90.55;97925.66;6206702;28;20274;-43
2022/08/24 02:14:46;;;;;;;4.43;3.73;;;;;;;16.63;90.64;97923.13;6205925;28;20221;-45
2022/08/24 02:17:48;;;;;;;4.43;3.57;;;;;;;16.62;90.66;97924.13;6206951;28;20331;-46
2022/08/24 02:20:52;;;;;;;4.10;3.73;;;;;;;16.63;90.53;97917.78;6191577;28;20233;-44
2022/08/24 02:23:55;;;;;;;6.27;5.67;;;;;;;16.66;90.67;97922.00;6195513;28;20287;-48
2022/08/24 02:26:58;;;;;;;4.90;3.73;;;;;;;16.65;90.40;97914.97;6207232;28;20256;-44
2022/08/24 02:30:00;;;;;;;8.00;4.63;;;;;;;16.66;90.28;97914.00;6207168;28;20244;-48
2022/08/24 02:33:02;;;;;;;4.53;3.90;;;;;;;16.66;90.43;97904.19;6182543;28;20306;-47
2022/08/24 02:36:06;;;;;;;3.63;3.27;;;;;;;16.66;90.01;97916.66;6205972;28;20210;-46
2022/08/24 02:39:28;;;;;;;3.70;3.37;;;;;;;16.67;90.12;97926.34;6205461;28;20233;-43
2022/08/24 02:42:32;;;;;;;5.73;3.27;;;;;;;16.65;90.17;97921.16;6205881;28;20232;-44
2022/08/24 02:45:41;;;;;;;3.77;3.47;;;;;;;16.64;90.14;97923.97;6206180;28;20248;-43
2022/08/24 02:48:43;;;;;;;4.10;3.70;;;;;;;16.66;89.96;97929.97;6206191;28;20536;-43
2022/08/24 02:51:46;;;;;;;4.70;4.23;;;;;;;16.65;90.22;97922.97;6198188;28;20229;-46
2022/08/24 02:54:54;;;;;;;4.53;3.90;;;;;;;16.62;90.47;97924.13;6207797;28;20247;-45
2022/08/24 02:57:57;;;;;;;7.70;4.23;;;;;;;16.55;90.80;97913.22;6204113;28;20609;-44
2022/08/24 03:00:59;;;;;;;5.73;4.57;;;;;;;16.52;90.95;97918.84;6204272;28;20229;-44
2022/08/24 03:04:02;;;;;;;3.77;3.37;;;;;;;16.50;91.00;97922.66;6204710;28;20945;-43
2022/08/24 03:07:04;;;;;;;4.23;3.80;;;;;;;16.47;91.50;97930.97;6204724;28;20244;-44
2022/08/24 03:10:07;;;;;;;4.27;3.83;;;;;;;16.47;91.54;97930.97;6206429;28;20236;-47
2022/08/24 03:13:09;;;;;;;7.17;4.80;;;;;;;16.43;92.21;97925.09;6204266;28;20723;-46
2022/08/24 03:16:11;;;;;;;6.10;3.80;;;;;;;16.41;92.33;97920.91;6205901;28;20267;-44
2022/08/24 03:19:14;;;;;;;5.70;4.33;;;;;;;16.36;92.93;97921.38;6203806;28;20236;-44
2022/08/24 03:22:18;;;;;;;11.87;7.83;;;;;;;16.35;93.27;97925.03;6195379;28;20240;-43
2022/08/24 03:25:23;;;;;;;8.97;6.83;;;;;;;16.39;92.84;97939.72;6205904;28;20251;-44
2022/08/24 03:28:25;;;;;;;5.03;4.37;;;;;;;16.40;92.98;97935.22;6204559;28;20247;-43
2022/08/24 03:31:28;;;;;;;10.13;5.53;;;;;;;16.40;92.81;97938.72;6204612;28;20236;-43
2022/08/24 03:34:32;;;;;;;9.70;6.47;;;;;;;16.40;93.17;97937.88;6203991;28;20264;-43
2022/08/24 03:37:34;;;;;;;20.73;12.43;;;;;;;16.38;93.56;97938.03;6181430;28;20330;-45
2022/08/24 03:40:38;;;;;;;8.83;7.13;;;;;;;16.44;92.97;97945.44;6199955;28;20240;-44
2022/08/24 03:43:49;;;;;;;18.57;12.50;;;;;;;16.46;93.13;97943.47;6203433;28;20522;-44
2022/08/24 03:46:54;;;;;;;14.47;10.20;;;;;;;16.45;93.04;97941.78;6205200;28;20220;-44
2022/08/24 03:49:58;;;;;;;9.00;7.33;;;;;;;16.49;92.85;97945.78;6171957;28;20229;-45
2022/08/24 03:53:00;;;;;;;9.30;7.60;;;;;;;16.50;92.54;97934.16;6187812;28;20236;-45
2022/08/24 03:56:02;;;;;;;6.23;5.43;;;;;;;16.53;92.66;97938.34;6203678;28;20267;-43
2022/08/24 03:59:12;;;;;;;6.00;5.40;;;;;;;16.55;92.20;97939.88;6203201;28;20319;-44
2022/08/24 04:02:40;;;;;;;5.60;4.20;;;;;;;16.55;91.79;97939.03;6203763;28;20315;-44
2022/08/24 04:05:47;;;;;;;5.67;4.27;;;;;;;16.56;91.85;97935.38;6188044;28;20723;-44
2022/08/24 04:08:50;;;;;;;31.67;23.83;;;;;;;16.57;91.37;97942.34;6203828;28;20267;-43
2022/08/24 04:11:54;;;;;;;6.83;6.20;;;;;;;16.58;91.06;97946.69;6202692;28;20236;-43
2022/08/24 04:14:58;;;;;;;5.70;5.10;;;;;;;16.61;91.00;97946.38;6204609;28;20235;-44
2022/08/24 04:18:02;;;;;;;40.93;25.57;;;;;;;16.66;90.67;97937.97;6179221;28;20770;-44
2022/08/24 04:21:05;;;;;;;10.70;7.80;;;;;;;16.65;90.63;97937.13;6199300;28;20220;-42
2022/08/24 04:24:08;;;;;;;9.10;6.63;;;;;;;16.65;90.74;97931.81;6202955;28;20231;-43
2022/08/24 04:27:10;;;;;;;12.37;8.77;;;;;;;16.66;90.76;97927.31;6202174;28;21011;-44
2022/08/24 04:30:13;;;;;;;6.37;4.73;;;;;;;16.68;91.08;97942.13;6202060;28;20208;-44
2022/08/24 04:33:37;;;;;;;7.97;5.13;;;;;;;16.73;90.65;97944.34;6204389;28;20263;-44
2022/08/24 04:36:42;;;;;;;4.97;4.47;;;;;;;16.80;90.14;97943.56;6202670;28;20583;-43
2022/08/24 04:39:44;;;;;;;4.40;4.00;;;;;;;16.85;89.70;97951.13;6202442;28;20286;-43
2022/08/24 04:43:01;;;;;;;5.37;4.40;;;;;;;16.92;89.57;97952.16;6202444;28;20229;-43
2022/08/24 04:46:06;;;;;;;3.80;3.50;;;;;;;16.96;89.34;97949.03;6205372;28;20564;-43
2022/08/24 04:49:08;;;;;;;8.17;5.57;;;;;;;16.97;88.86;97948.00;6207005;28;20224;-43
2022/08/24 04:52:11;;;;;;;47.73;27.60;;;;;;;17.05;88.90;97952.59;6184907;28;20290;-43
2022/08/24 04:55:15;;;;;;;9.37;6.83;;;;;;;17.08;88.36;97954.91;6206867;28;20236;-44
2022/08/24 04:58:17;;;;;;;5.70;5.03;;;;;;;17.12;88.19;97944.78;6209047;28;20232;-46
2022/08/24 05:01:24;;;;;;;5.63;4.93;;;;;;;17.17;88.00;97953.97;6208805;28;20236;-43
2022/08/24 05:04:27;;;;;;;5.60;5.03;;;;;;;17.20;87.81;97959.00;6206326;28;20568;-43
2022/08/24 05:07:32;;;;;;;4.37;3.97;;;;;;;17.25;87.68;97954.03;6208367;28;21947;-43
2022/08/24 05:10:38;;;;;;;4.00;3.60;;;;;;;17.30;87.23;97951.72;6208243;28;20247;-44
2022/08/24 05:13:40;;;;;;;4.27;3.87;;;;;;;17.36;87.25;97965.44;6206711;28;20525;-44
2022/08/24 05:16:42;;;;;;;4.27;3.80;;;;;;;17.38;86.96;97968.75;6208238;28;20232;-44
2022/08/24 05:19:53;;;;;;;4.50;4.10;;;;;;;17.40;86.69;97970.28;6201280;28;20527;-44
2022/08/24 05:22:55;;;;;;;3.80;3.50;;;;;;;17.44;86.73;97963.66;6177796;28;20609;-43
2022/08/24 05:26:09;;;;;;;3.93;3.63;;;;;;;17.49;86.35;97965.81;6206224;28;20236;-43
2022/08/24 05:29:11;;;;;;;5.00;4.07;;;;;;;17.54;85.96;97961.69;6208466;28;20232;-43
2022/08/24 05:32:18;;;;;;;4.13;3.73;;;;;;;17.56;85.85;97959.72;6205976;28;20354;-44
2022/08/24 05:35:21;;;;;;;4.07;3.77;;;;;;;17.60;85.59;97973.53;6205215;28;20236;-44
2022/08/24 05:38:24;;;;;;;3.83;3.47;;;;;;;17.62;85.68;97964.41;6204509;28;20235;-43
2022/08/24 05:41:27;;;;;;;3.77;3.43;;;;;;;17.67;85.49;97967.44;6207207;28;20905;-42
2022/08/24 05:44:42;;;;;;;4.30;3.90;;;;;;;17.78;84.95;97968.97;6206480;28;20228;-44
2022/08/24 05:47:44;;;;;;;4.37;3.97;;;;;;;17.84;84.15;97965.69;6206092;28;20715;-46
2022/08/24 05:51:10;;;;;;;5.43;3.97;;;;;;;17.91;83.87;97960.53;6167188;28;20234;-43
2022/08/24 05:54:25;;;;;;;3.30;3.00;;;;;;;18.02;83.63;97955.72;6199020;28;20228;-45
2022/08/24 05:57:33;;;;;;;3.90;3.50;;;;;;;18.06;83.12;97945.56;6204647;28;20260;-43
2022/08/24 06:00:50;;;;;;;4.57;4.17;;;;;;;18.11;82.71;97942.38;6204593;28;20232;-45
2022/08/24 06:08:26;;;;;;;4.53;3.77;;;;;;;18.13;82.03;97953.75;6201185;28;20228;-44
2022/08/24 06:11:33;;;;;;;4.00;3.60;;;;;;;18.14;82.13;97945.56;6204626;28;20224;-46
2022/08/24 06:14:38;;;;;;;3.73;3.43;;;;;;;18.15;82.15;97944.56;6204721;28;20232;-44
2022/08/24 06:17:41;;;;;;;4.50;4.10;;;;;;;18.20;82.04;97938.72;6204313;28;20660;-44
2022/08/24 06:20:43;;;;;;;4.20;3.80;;;;;;;18.16;81.58;97946.25;6195905;28;20487;-47
2022/08/24 06:23:49;;;;;;;4.43;3.30;;;;;;;18.21;81.58;97940.38;6206369;28;20244;-43
2022/08/24 06:30:14;;;;;;;4.40;4.00;;;;;;;18.36;81.15;97939.59;6182098;28;20295;-44
2022/08/24 06:33:16;;;;;;;5.17;4.00;;;;;;;18.50;80.54;97938.09;6205800;28;20668;-44
2022/08/24 06:36:22;;;;;;;4.17;3.77;;;;;;;18.64;80.26;97937.47;6204854;28;20250;-45
2022/08/24 06:39:26;;;;;;;4.27;3.87;;;;;;;18.69;79.76;97947.63;6204420;28;20322;-44
2022/08/24 06:42:31;;;;;;;3.80;3.43;;;;;;;18.72;79.40;97944.63;6205653;28;20661;-45
2022/08/24 06:45:34;;;;;;;4.07;3.77;;;;;;;18.76;79.14;97946.81;6205020;28;20237;-44
2022/08/24 06:48:38;;;;;;;5.30;3.77;;;;;;;18.85;78.98;97952.16;6203683;28;20593;-45
2022/08/24 06:51:41;;;;;;;3.70;3.37;;;;;;;18.94;78.62;97953.81;6183418;28;20229;-45
2022/08/24 06:54:44;;;;;;;4.03;3.67;;;;;;;19.08;77.79;97959.31;6182217;28;20251;-47
2022/08/24 06:57:47;;;;;;;3.90;3.57;;;;;;;19.28;77.32;97966.94;6204473;28;20279;-47
2022/08/24 07:00:55;;;;;;;3.83;3.40;;;;;;;19.43;76.70;97970.59;6204004;28;20294;-49
2022/08/24 07:03:58;;;;;;;3.50;3.20;;;;;;;19.50;76.41;97972.44;6203127;28;20742;-43
2022/08/24 07:07:37;;;;;;;3.73;3.43;;;;;;;19.70;76.03;97972.88;6188694;28;20245;-45
2022/08/24 07:10:43;;;;;;;4.00;3.60;;;;;;;19.87;75.27;97971.78;6175994;28;20255;-45
2022/08/24 07:13:47;;;;;;;4.17;3.77;;;;;;;20.03;74.87;97968.22;6203469;28;20232;-46
2022/08/24 07:16:49;;;;;;;6.07;3.50;;;;;;;20.08;74.81;97965.00;6204291;28;20740;-47
2022/08/24 07:19:52;;;;;;;3.60;3.30;;;;;;;20.10;74.39;97961.13;6180740;28;20791;-44
2022/08/24 07:23:13;;;;;;;3.43;3.07;;;;;;;20.23;74.05;97965.94;6186963;28;20320;-43
2022/08/24 07:26:20;;;;;;;4.23;3.90;;;;;;;20.26;73.48;97966.38;6202764;28;20217;-46
2022/08/24 07:29:26;;;;;;;4.30;4.00;;;;;;;20.32;74.19;97966.72;6208934;28;20225;-45
2022/08/24 07:32:50;;;;;;;5.40;3.20;;;;;;;20.48;72.95;97963.94;6202600;28;20322;-44
2022/08/24 07:35:53;;;;;;;3.80;3.50;;;;;;;20.49;72.64;97962.94;6202862;28;20232;-49
2022/08/24 07:38:58;;;;;;;3.33;3.03;;;;;;;20.56;72.56;97970.06;6203252;28;20236;-43
2022/08/24 07:42:00;;;;;;;4.07;3.77;;;;;;;20.57;72.20;97971.75;6204520;28;20231;-46
2022/08/24 07:45:15;;;;;;;4.10;3.80;;;;;;;20.62;71.40;97979.28;6180683;28;20225;-45
2022/08/24 07:48:21;;;;;;;3.33;3.03;;;;;;;20.68;71.26;97975.84;6202601;28;20235;-48
2022/08/24 07:51:26;;;;;;;3.90;3.60;;;;;;;20.78;70.61;97976.44;6196658;28;20298;-46
2022/08/24 07:54:28;;;;;;;3.97;3.57;;;;;;;20.73;70.59;97965.44;6202131;28;20298;-44
2022/08/24 07:57:33;;;;;;;2.93;2.73;;;;;;;20.74;70.69;97959.06;6202623;28;20702;-47
2022/08/24 08:00:37;;;;;;;4.67;3.13;;;;;;;20.57;70.83;97966.38;6203297;28;20271;-44
2022/08/24 08:03:39;;;;;;;4.07;3.67;;;;;;;20.67;71.31;97976.88;6204625;28;20711;-46
2022/08/24 08:06:42;;;;;;;3.80;3.33;;;;;;;20.82;71.27;97975.09;6194055;28;20233;-47
2022/08/24 08:09:45;;;;;;;4.03;2.87;;;;;;;21.06;70.53;97971.38;6201648;28;20236;-50
2022/08/24 08:12:47;;;;;;;3.17;2.87;;;;;;;21.36;69.24;97980.31;6203447;28;20231;-48
2022/08/24 08:15:50;;;;;;;4.07;3.67;;;;;;;21.44;68.36;97979.41;6201303;28;20228;-46
2022/08/24 08:18:55;;;;;;;3.67;3.33;;;;;;;21.59;67.62;97981.06;6201872;28;20734;-46
2022/08/24 08:25:56;;;;;;;3.53;3.20;;;;;;;21.76;67.36;97981.69;6195273;28;20236;-46
2022/08/24 08:29:13;;;;;;;3.57;3.27;;;;;;;22.23;66.02;97967.88;6202174;28;20232;-44
2022/08/24 08:32:18;;;;;;;4.30;3.90;;;;;;;22.53;64.86;97983.91;6202861;28;20237;-48
2022/08/24 08:35:25;;;;;;;5.00;3.93;;;;;;;22.44;64.84;97978.66;6201873;28;20327;-46
2022/08/24 08:38:28;;;;;;;5.67;3.67;;;;;;;22.75;64.25;97969.47;6202211;28;20426;-47
2022/08/24 08:41:42;;;;;;;3.93;3.53;;;;;;;23.02;63.58;97978.59;6202258;28;20295;-44
2022/08/24 08:45:30;;;;;;;4.50;3.10;;;;;;;22.97;63.72;97976.47;6202637;28;20379;-45
2022/08/24 08:49:10;;;;;;;3.40;3.10;;;;;;;22.70;63.99;97988.84;6136134;28;20260;-49
2022/08/24 08:52:56;;;;;;;3.27;3.03;;;;;;;22.77;64.12;97997.81;6165356;28;20604;-45
2022/08/24 08:56:44;;;;;;;3.60;3.30;;;;;;;23.11;63.81;97993.59;6201744;28;20280;-45
2022/08/24 09:00:01;;;;;;;3.50;3.20;;;;;;;23.62;62.05;98002.28;6202934;28;20232;-44
2022/08/24 09:03:08;;;;;;;3.57;3.27;;;;;;;23.94;60.15;97989.19;6178430;28;20260;-48
2022/08/24 09:06:41;;;;;;;3.50;3.20;;;;;;;24.38;59.06;97992.28;6194667;28;20208;-45
2022/08/24 09:10:12;;;;;;;3.10;2.80;;;;;;;24.88;58.09;97985.53;6183676;28;20235;-45
2022/08/24 09:13:49;;;;;;;3.67;3.10;;;;;;;25.18;57.33;97998.66;6200215;28;20307;-47
2022/08/24 09:17:27;;;;;;;3.90;3.60;;;;;;;24.67;56.85;97993.81;6190032;28;20247;-47
2022/08/24 09:20:52;;;;;;;3.37;3.07;;;;;;;24.35;58.12;97994.56;6200684;28;20575;-46
2022/08/24 09:24:16;;;;;;;3.03;2.83;;;;;;;24.63;57.54;97987.16;6201439;28;20241;-47
2022/08/24 09:27:42;;;;;;;3.80;3.22;;;;;;;24.57;57.80;97996.91;6180824;28;20345;-50
2022/08/24 09:31:14;;;;;;;3.60;3.30;;;;;;;24.63;58.06;98004.19;6201318;28;20237;-46
2022/08/24 09:34:28;;;;;;;3.50;3.00;;;;;;;24.88;57.35;97999.03;6205895;28;20241;-47
2022/08/24 09:37:32;;;;;;;3.58;3.28;;;;;;;25.43;55.99;97993.47;6207032;28;20240;-46
2022/08/24 09:41:03;;;;;;;3.15;2.92;;;;;;;25.85;55.14;97990.31;6207641;28;20511;-48
2022/08/24 09:44:33;;;;;;;3.42;3.13;;;;;;;26.23;53.97;97986.81;6207274;28;20243;-48
2022/08/24 09:47:53;;;;;;;4.18;3.50;;;;;;;25.70;53.65;97992.41;6207590;28;20221;-49
2022/08/24 09:51:16;;;;;;;3.28;2.97;;;;;;;25.79;53.86;97974.91;6197324;28;20240;-48
2022/08/24 09:54:47;;;;;;;3.13;2.83;;;;;;;26.48;52.49;97967.97;6184507;28;20248;-47
2022/08/24 09:58:34;;;;;;;3.92;3.63;;;;;;;26.05;52.34;97977.50;6206850;28;20830;-49
2022/08/24 10:01:47;;;;;;;3.33;3.13;;;;;;;26.25;52.50;97973.91;6205021;28;20236;-45
2022/08/24 10:04:55;;;;;;;2.97;2.78;;;;;;;26.30;51.92;97966.84;6206817;28;21168;-48
2022/08/24 10:08:19;;;;;;;2.83;2.63;;;;;;;26.30;52.09;97972.25;6198598;28;20575;-47
2022/08/24 10:12:06;;;;;;;4.53;4.13;;;;;;;25.71;53.83;97969.75;6206617;28;20578;-46
2022/08/24 10:15:18;;;;;;;3.33;3.03;;;;;;;25.72;55.33;97980.34;6200916;28;20607;-44
2022/08/24 10:18:44;;;;;;;3.20;2.90;;;;;;;25.87;53.63;97980.06;6189184;28;20600;-46
2022/08/24 10:22:02;;;;;;;3.60;3.30;;;;;;;26.26;53.54;97967.44;6187662;28;20220;-47
2022/08/24 10:25:44;;;;;;;3.75;3.45;;;;;;;25.92;52.28;97964.06;6203476;28;20386;-47
2022/08/24 10:29:29;;;;;;;4.22;3.30;;;;;;;26.58;52.11;97952.09;6205910;28;20229;-46
2022/08/24 10:32:42;;;;;;;3.67;3.38;;;;;;;27.18;50.98;97966.88;6206860;28;20264;-50
2022/08/24 10:36:14;;;;;;;3.85;3.55;;;;;;;26.67;51.78;97961.59;6206580;28;20264;-47
2022/08/24 10:46:33;;;;;;;6.15;4.25;;;;;;;27.11;50.69;97966.13;6205513;28;20229;-50
2022/08/24 10:49:35;;;;;;;3.95;3.65;;;;;;;27.06;50.45;97955.09;6202394;28;20712;-47
2022/08/24 10:52:56;;;;;;;4.00;3.63;;;;;;;27.56;49.95;97955.91;6183497;28;20237;-47
2022/08/24 10:56:08;;;;;;;4.15;3.80;;;;;;;27.19;49.61;97949.56;6205718;28;20236;-46
2022/08/24 10:59:25;;;;;;;3.88;3.58;;;;;;;27.10;50.68;97946.31;6210193;28;20240;-46
2022/08/24 11:02:35;;;;;;;3.78;3.47;;;;;;;27.85;49.76;97943.50;6205858;28;20252;-46
2022/08/24 11:05:47;;;;;;;4.20;3.80;;;;;;;27.82;48.63;97950.22;6205413;28;20621;-45
2022/08/24 11:09:05;;;;;;;4.00;3.67;;;;;;;28.02;47.48;97943.72;6205285;28;20236;-46
2022/08/24 11:12:22;;;;;;;5.38;3.80;;;;;;;27.76;48.77;97944.84;6204473;28;20240;-44
2022/08/24 11:15:27;;;;;;;4.63;4.20;;;;;;;27.37;49.77;97949.59;6204951;28;20244;-46
2022/08/24 11:18:53;;;;;;;3.97;3.60;;;;;;;27.18;50.06;97943.31;6205238;28;20232;-45
2022/08/24 11:22:00;;;;;;;4.63;3.75;;;;;;;27.22;51.05;97943.72;6199775;28;20647;-45
2022/08/24 11:25:14;;;;;;;3.65;3.35;;;;;;;27.39;50.43;97942.06;6205234;28;20240;-44
2022/08/24 11:28:22;;;;;;;4.10;3.70;;;;;;;27.72;49.60;97951.78;6204731;28;20627;-47
2022/08/24 11:31:41;;;;;;;3.95;3.47;;;;;;;28.28;48.43;97943.38;6204700;28;20236;-46
2022/08/24 11:34:45;;;;;;;3.78;3.40;;;;;;;28.79;47.17;97945.59;6204208;28;20233;-50
2022/08/24 11:37:50;;;;;;;3.90;3.50;;;;;;;28.73;46.81;97951.13;6204770;28;20259;-47
2022/08/24 11:41:21;;;;;;;3.70;3.40;;;;;;;28.47;47.31;97947.72;6203027;28;20385;-45
2022/08/24 11:44:49;;;;;;;3.58;3.28;;;;;;;29.17;45.67;97953.34;6204035;28;20591;-46
2022/08/24 11:48:09;;;;;;;4.13;3.72;;;;;;;28.48;45.24;97941.22;6204276;28;20311;-47
2022/08/24 11:51:21;;;;;;;3.60;3.30;;;;;;;28.68;47.08;97938.22;6188558;28;20243;-45
2022/08/24 11:54:24;;;;;;;3.80;3.50;;;;;;;29.35;46.26;97933.38;6203312;28;20240;-45
2022/08/24 11:57:37;;;;;;;3.97;3.67;;;;;;;30.14;43.61;97937.34;6204059;28;20241;-44
2022/08/24 12:01:23;;;;;;;6.07;3.53;;;;;;;30.61;42.30;97943.44;6204968;28;20232;-47
2022/08/24 12:04:43;;;;;;;3.85;3.55;;;;;;;29.76;42.94;97943.28;6203526;28;20240;-47
2022/08/24 12:08:17;;;;;;;5.45;4.05;;;;;;;28.43;46.79;97945.72;6202205;28;20862;-45
2022/08/24 12:11:25;;;;;;;4.35;4.05;;;;;;;27.88;47.76;97951.19;6204522;28;20280;-47
2022/08/24 12:15:07;;;;;;;4.05;3.75;;;;;;;28.09;46.38;97948.00;6203433;28;20240;-45
2022/08/24 12:18:24;;;;;;;4.05;3.38;;;;;;;28.59;46.75;97940.44;6203206;28;20236;-45
2022/08/24 12:21:33;;;;;;;4.35;3.95;;;;;;;29.66;44.38;97941.19;6184286;28;20237;-48
2022/08/24 12:24:49;;;;;;;4.03;3.67;;;;;;;30.11;42.45;97937.00;6198574;28;20259;-47
2022/08/24 12:27:52;;;;;;;4.50;4.07;;;;;;;29.66;43.88;97938.47;6202915;28;20314;-49
2022/08/24 12:30:58;;;;;;;5.03;3.78;;;;;;;29.70;43.68;97927.94;6203008;28;20228;-48
2022/08/24 12:34:12;;;;;;;3.40;3.10;;;;;;;29.85;43.19;97927.44;6203589;28;20645;-47
2022/08/24 12:37:30;;;;;;;4.03;3.50;;;;;;;29.80;43.52;97930.88;6202766;28;20240;-45
2022/08/24 12:40:38;;;;;;;4.80;3.85;;;;;;;29.97;43.93;97929.09;6203520;28;20232;-48
2022/08/24 12:43:48;;;;;;;4.53;3.92;;;;;;;29.59;43.20;97935.06;6203277;28;20240;-48
2022/08/24 12:46:53;;;;;;;3.80;3.50;;;;;;;28.07;46.71;97939.25;6203539;28;20220;-48
2022/08/24 12:50:03;;;;;;;4.43;4.00;;;;;;;27.91;48.05;97938.00;6199042;28;20229;-48
2022/08/24 12:53:24;;;;;;;4.10;3.80;;;;;;;28.72;46.40;97933.16;6204578;28;20715;-45
2022/08/24 12:56:50;;;;;;;4.10;3.70;;;;;;;28.92;44.73;97931.00;6203383;28;20229;-50
2022/08/24 12:59:56;;;;;;;4.25;3.85;;;;;;;29.66;43.78;97929.47;6155763;28;20230;-50
2022/08/24 13:03:29;;;;;;;4.07;3.72;;;;;;;30.13;41.40;97929.41;6155585;28;20244;-49
2022/08/24 13:07:06;;;;;;;3.72;3.42;;;;;;;30.35;41.05;97911.31;6157409;28;20713;-49
2022/08/24 13:10:14;;;;;;;4.03;3.53;;;;;;;30.70;39.93;97930.25;6160155;28;20234;-49
2022/08/24 13:13:38;;;;;;;3.75;3.45;;;;;;;30.41;42.30;97926.69;6208048;28;20855;-48
2022/08/24 13:16:53;;;;;;;5.50;3.80;;;;;;;30.50;41.59;97910.78;6209175;28;20236;-49
2022/08/24 13:20:41;;;;;;;5.88;3.95;;;;;;;30.59;41.25;97907.44;6195160;28;20632;-49
2022/08/24 13:23:44;;;;;;;3.95;3.65;;;;;;;30.91;41.48;97904.97;6151943;28;20721;-49
2022/08/24 13:26:47;;;;;;;5.45;4.05;;;;;;;31.36;39.59;97910.34;6202428;28;20619;-50
2022/08/24 13:30:04;;;;;;;3.80;3.50;;;;;;;31.92;38.17;97900.22;6207901;28;20296;-50
2022/08/24 13:33:09;;;;;;;3.97;3.65;;;;;;;32.36;37.92;97895.53;6207192;28;20615;-52
2022/08/24 13:36:30;;;;;;;3.35;3.13;;;;;;;33.91;35.04;97892.66;6208162;28;20712;-50
2022/08/24 13:39:51;;;;;;;4.38;3.97;;;;;;;34.16;33.76;97894.66;6207611;28;20224;-50
2022/08/24 13:43:01;;;;;;;4.15;3.75;;;;;;;33.92;34.25;97891.56;6207491;28;20239;-47
2022/08/24 13:46:18;;;;;;;4.00;3.65;;;;;;;35.40;32.44;97887.97;6207986;28;20233;-52
2022/08/24 13:49:28;;;;;;;3.95;3.65;;;;;;;36.71;29.54;97877.50;6205064;28;20704;-50
2022/08/24 13:52:47;;;;;;;4.22;3.38;;;;;;;36.89;30.26;97890.56;6189615;28;20637;-45
2022/08/24 13:55:53;;;;;;;4.00;3.47;;;;;;;37.54;28.59;97880.03;6207594;28;20629;-48
2022/08/24 13:59:14;;;;;;;3.70;3.40;;;;;;;37.67;28.53;97882.13;6207742;28;20252;-47
2022/08/24 14:02:41;;;;;;;3.65;3.35;;;;;;;37.96;27.61;97879.28;6208052;28;20316;-47
2022/08/24 14:06:17;;;;;;;3.42;3.13;;;;;;;39.09;26.08;97885.69;6206069;28;20248;-48
2022/08/24 14:09:45;;;;;;;4.03;3.63;;;;;;;39.89;25.27;97890.03;6185225;28;20235;-50
2022/08/24 14:13:19;;;;;;;4.18;3.88;;;;;;;40.15;24.84;97891.94;6206772;28;20304;-49
2022/08/24 14:20:11;;;;;;;3.50;3.15;;;;;;;40.29;24.04;97891.94;6203886;28;20251;-48
2022/08/24 14:23:49;;;;;;;4.97;3.90;;;;;;;41.26;23.49;97884.94;6207720;28;20244;-52
2022/08/24 14:27:01;;;;;;;4.38;3.90;;;;;;;40.31;24.48;97889.69;6206275;28;20247;-47
2022/08/24 14:30:16;;;;;;;4.32;3.92;;;;;;;36.97;28.68;97888.00;6207192;28;20591;-47
2022/08/24 14:33:26;;;;;;;4.13;3.72;;;;;;;38.12;27.63;97880.78;6206885;28;20217;-45
2022/08/24 14:36:51;;;;;;;4.00;3.60;;;;;;;38.71;26.61;97882.16;6206542;28;20290;-45
2022/08/24 14:40:20;;;;;;;4.38;3.85;;;;;;;39.97;25.15;97887.34;6206009;28;20287;-47
2022/08/24 14:43:31;;;;;;;5.05;3.92;;;;;;;39.08;25.28;97887.63;6205143;28;20233;-45
2022/08/24 14:46:45;;;;;;;4.30;3.30;;;;;;;39.64;24.30;97883.03;6205818;28;20616;-45
2022/08/24 14:50:19;;;;;;;3.95;3.45;;;;;;;40.80;23.40;97879.72;6200393;28;20249;-47
2022/08/24 14:54:02;;;;;;;4.30;4.00;;;;;;;39.58;24.51;97878.72;6157710;28;20252;-45
2022/08/24 14:57:17;;;;;;;4.05;3.65;;;;;;;36.17;29.08;97878.34;6186527;28;20319;-47
2022/08/24 15:00:25;;;;;;;4.22;3.90;;;;;;;33.99;32.91;97872.97;6161314;28;20214;-44
2022/08/24 15:03:47;;;;;;;4.22;3.92;;;;;;;31.94;36.96;97876.22;6202771;28;20607;-47
2022/08/24 15:07:05;;;;;;;4.50;4.10;;;;;;;34.08;34.19;97876.81;6204303;28;20605;-45
2022/08/24 15:10:13;;;;;;;4.70;4.18;;;;;;;33.90;34.16;97877.31;6205311;28;20767;-47
2022/08/24 15:13:19;;;;;;;4.32;3.92;;;;;;;32.93;36.56;97878.63;6205777;28;20248;-46
2022/08/24 15:17:00;;;;;;;5.53;3.83;;;;;;;31.27;38.50;97879.09;6205218;28;20727;-45
2022/08/24 15:20:42;;;;;;;4.63;4.18;;;;;;;29.92;41.11;97873.69;6195756;28;20237;-46
2022/08/24 15:23:49;;;;;;;4.47;4.07;;;;;;;29.45;43.42;97871.06;6199214;28;20232;-44
2022/08/24 15:26:55;;;;;;;4.55;3.65;;;;;;;30.23;41.65;97861.53;6205705;28;20229;-46